»·PEaware :: AAL420 KLAS-KSAN

AAL420 :: KLAS-KSAN

FLIGHT INFORMATION

Flight Status: Arrived
Operator:
American Airlines
More flights by this operator :: More flights under this callsign
Pilot: Chris V. (11989)
Aircraft: BOEING 757-200
(B752)
More flights by this aircraft type
Origin: KLAS McCarran Intl
United States
Destination: KSAN San Diego Intl-Lindbergh
United States
More flights between these airports :: More routes between these airports
Route: BOACH8 LVELL LUCKI1
File this flight plan on PilotEdge
Remarks:
Altitude:
(Current/Filed)
32,000ft
Speed:
(Current/Filed)
450kts
Departed: 03-Aug-18 01:00 PM
Arrived: 03-Aug-18 01:48 PM
Distance/Time
Traveled:
225nm/0:48
Distance/Time
To Go:
Arrived

Flight Plot

Page will automatically refresh every two minutes.

Flight plan parsing failed; only flown route is shown


Map Options




Map Legend


Flown Route
Filed Route
Departure Airport
Arrival Airport
Navaid (VOR, NDB)
Fix

Horizontal Profiles

Position Reports

Time Latitude Longitude Heading Altitude Ground
Speed
03-Aug-18 12:28 36.082198 -115.151069 12 2111ft 0kts
03-Aug-18 12:29 36.082198 -115.151069 12 2111ft 0kts
03-Aug-18 12:30 36.082198 -115.151069 12 2111ft 0kts
03-Aug-18 12:31 36.082198 -115.151069 12 2111ft 0kts
03-Aug-18 12:32 36.082198 -115.151069 12 2111ft 0kts
03-Aug-18 12:33 36.082198 -115.151069 12 2111ft 0kts
03-Aug-18 12:34 36.082198 -115.151069 12 2111ft 0kts
03-Aug-18 12:35 36.082198 -115.151069 12 2111ft 0kts
03-Aug-18 12:36 36.082198 -115.151069 12 2111ft 0kts
03-Aug-18 12:37 36.082198 -115.151069 12 2111ft 0kts
03-Aug-18 12:38 36.082198 -115.151069 12 2111ft 0kts
03-Aug-18 12:39 36.082198 -115.151069 12 2111ft 0kts
03-Aug-18 12:40 36.082198 -115.151069 12 2111ft 0kts
03-Aug-18 12:41 36.082198 -115.151069 12 2111ft 0kts
03-Aug-18 12:42 36.082198 -115.151069 12 2111ft 0kts
03-Aug-18 12:43 36.082198 -115.151069 12 2111ft 0kts
03-Aug-18 12:44 36.082198 -115.151069 12 2111ft 0kts
03-Aug-18 12:45 36.082198 -115.151069 12 2111ft 0kts
03-Aug-18 12:46 36.081908 -115.151059 341 2112ft 2kts
03-Aug-18 12:47 36.081459 -115.150596 314 2111ft 2kts
03-Aug-18 12:48 36.081341 -115.150446 314 2111ft 0kts
03-Aug-18 12:49 36.081341 -115.150446 314 2111ft 0kts
03-Aug-18 12:50 36.081392 -115.150890 236 2112ft 3kts
03-Aug-18 12:51 36.080326 -115.151962 186 2118ft 10kts
03-Aug-18 12:52 36.079764 -115.151993 181 2120ft 0kts
03-Aug-18 12:53 36.079600 -115.151997 181 2120ft 2kts
03-Aug-18 12:54 36.078347 -115.152102 201 2124ft 7kts
03-Aug-18 12:55 36.078037 -115.155377 269 2138ft 11kts
03-Aug-18 12:56 36.078029 -115.158921 270 2149ft 11kts
03-Aug-18 12:57 36.078023 -115.161955 269 2161ft 7kts
03-Aug-18 12:58 36.077543 -115.163371 208 2166ft 0kts
03-Aug-18 12:59 36.077543 -115.163371 208 2166ft 0kts
03-Aug-18 13:00 36.076359 -115.162274 90 2166ft 21kts
03-Aug-18 13:01 36.076269 -115.120259 90 3217ft 164kts
03-Aug-18 13:02 36.080496 -115.057255 87 4322ft 218kts
03-Aug-18 13:03 36.080911 -114.972279 105 6228ft 268kts
03-Aug-18 13:04 36.023324 -114.921816 159 8966ft 278kts
03-Aug-18 13:05 35.946247 -114.915227 209 10355ft 336kts
03-Aug-18 13:06 35.881482 -115.000379 227 12592ft 360kts
03-Aug-18 13:07 35.814613 -115.089777 231 15207ft 367kts
03-Aug-18 13:08 35.751084 -115.187985 231 17609ft 374kts
03-Aug-18 13:09 35.680416 -115.281510 213 19855ft 386kts
03-Aug-18 13:10 35.575244 -115.304632 177 21868ft 411kts
03-Aug-18 13:11 35.461484 -115.300522 184 23767ft 420kts
03-Aug-18 13:12 35.344352 -115.304058 186 25621ft 432kts
03-Aug-18 13:13 35.224075 -115.308666 186 27251ft 445kts
03-Aug-18 13:14 35.099581 -115.313548 186 28732ft 457kts
03-Aug-18 13:15 34.972520 -115.318539 186 30272ft 464kts
03-Aug-18 13:16 34.851258 -115.324629 185 31796ft 464kts
03-Aug-18 13:17 34.728679 -115.353995 202 31915ft 453kts
03-Aug-18 13:18 34.611230 -115.404635 203 31975ft 453kts
03-Aug-18 13:19 34.494091 -115.455653 203 32043ft 453kts
03-Aug-18 13:20 34.382423 -115.504233 203 32043ft 452kts
03-Aug-18 13:21 34.271808 -115.570147 214 32042ft 447kts
03-Aug-18 13:22 34.162719 -115.636403 205 32042ft 451kts
03-Aug-18 13:23 34.066373 -115.682152 204 31802ft 442kts
03-Aug-18 13:24 33.987965 -115.719331 204 30527ft 440kts
03-Aug-18 13:25 33.877490 -115.772428 204 28553ft 432kts
03-Aug-18 13:26 33.770462 -115.824866 203 26739ft 419kts
03-Aug-18 13:27 33.664673 -115.874081 203 24897ft 407kts
03-Aug-18 13:28 33.561969 -115.922026 203 23143ft 396kts
03-Aug-18 13:29 33.483752 -116.004000 233 21458ft 386kts
03-Aug-18 13:30 33.422543 -116.106249 234 19779ft 379kts
03-Aug-18 13:31 33.363429 -116.206761 234 18164ft 373kts
03-Aug-18 13:32 33.285700 -116.279692 206 16615ft 366kts
03-Aug-18 13:33 33.196818 -116.332286 206 15116ft 359kts
03-Aug-18 13:34 33.109096 -116.383553 206 13728ft 351kts
03-Aug-18 13:35 33.022980 -116.433779 206 12373ft 343kts
03-Aug-18 13:36 32.952404 -116.498841 220 11175ft 323kts
03-Aug-18 13:37 32.888729 -116.562819 220 10315ft 298kts
03-Aug-18 13:38 32.828434 -116.623187 220 9219ft 276kts
03-Aug-18 13:39 32.793736 -116.658772 221 8506ft 277kts
03-Aug-18 13:40 32.753201 -116.730988 240 7422ft 261kts
03-Aug-18 13:41 32.719660 -116.801520 240 6216ft 261kts
03-Aug-18 13:42 32.694436 -116.876047 250 5727ft 228kts
03-Aug-18 13:43 32.679863 -116.944738 286 4491ft 194kts
03-Aug-18 13:44 32.694144 -116.998653 286 3441ft 176kts
03-Aug-18 13:45 32.704037 -117.045009 282 2708ft 133kts
03-Aug-18 13:46 32.712195 -117.087746 281 2312ft 137kts
03-Aug-18 13:47 32.720298 -117.129951 282 1277ft 130kts
03-Aug-18 13:48 32.729126 -117.171494 284 253ft 131kts
03-Aug-18 13:49 32.735234 -117.197769 252 25ft 21kts
03-Aug-18 13:50 32.734692 -117.200284 255 23ft 7kts
03-Aug-18 13:51 32.734191 -117.200757 210 23ft 0kts

Navigation Log

Ident Type
Flight plan parsing failed, navigation log unavailable